sensor_id;sensor_type;location;lat;lon;timestamp;pressure;altitude;pressure_sealevel;temperature;humidity
70304;BME280;57712;48.752;11.348;2023-04-03T00:00:35;98185.91;;;3.70;100.00
70304;BME280;57712;48.752;11.348;2023-04-03T00:03:02;98181.69;;;3.72;100.00
70304;BME280;57712;48.752;11.348;2023-04-03T00:05:29;98187.53;;;3.74;100.00
70304;BME280;57712;48.752;11.348;2023-04-03T00:07:56;98177.50;;;3.75;100.00
70304;BME280;57712;48.752;11.348;2023-04-03T00:10:23;98181.34;;;3.74;100.00
70304;BME280;57712;48.752;11.348;2023-04-03T00:12:49;98190.34;;;3.78;100.00
70304;BME280;57712;48.752;11.348;2023-04-03T00:15:16;98188.09;;;3.64;100.00
70304;BME280;57712;48.752;11.348;2023-04-03T00:17:42;98182.13;;;3.74;100.00
70304;BME280;57712;48.752;11.348;2023-04-03T00:20:09;98189.25;;;3.63;100.00
70304;BME280;57712;48.752;11.348;2023-04-03T00:22:36;98194.19;;;3.58;100.00
70304;BME280;57712;48.752;11.348;2023-04-03T00:25:03;98181.91;;;3.64;100.00
70304;BME280;57712;48.752;11.348;2023-04-03T00:27:30;98191.19;;;3.63;100.00
70304;BME280;57712;48.752;11.348;2023-04-03T00:29:57;98188.75;;;3.58;100.00
70304;BME280;57712;48.752;11.348;2023-04-03T00:32:23;98179.91;;;3.61;100.00
70304;BME280;57712;48.752;11.348;2023-04-03T00:34:50;98187.09;;;3.53;100.00
70304;BME280;57712;48.752;11.348;2023-04-03T00:37:16;98181.69;;;3.53;100.00
70304;BME280;57712;48.752;11.348;2023-04-03T00:39:43;98184.91;;;3.59;100.00
70304;BME280;57712;48.752;11.348;2023-04-03T00:42:09;98187.31;;;3.64;100.00
70304;BME280;57712;48.752;11.348;2023-04-03T00:47:05;98183.72;;;3.56;100.00
70304;BME280;57712;48.752;11.348;2023-04-03T00:49:34;98182.13;;;3.55;100.00
70304;BME280;57712;48.752;11.348;2023-04-03T00:52:02;98183.34;;;3.58;100.00
70304;BME280;57712;48.752;11.348;2023-04-03T00:54:29;98189.31;;;3.47;100.00
70304;BME280;57712;48.752;11.348;2023-04-03T00:56:56;98182.91;;;3.56;100.00
70304;BME280;57712;48.752;11.348;2023-04-03T00:59:26;98181.69;;;3.53;100.00
70304;BME280;57712;48.752;11.348;2023-04-03T01:01:56;98182.47;;;3.54;100.00
70304;BME280;57712;48.752;11.348;2023-04-03T01:04:30;98179.69;;;3.50;100.00
70304;BME280;57712;48.752;11.348;2023-04-03T01:07:01;98174.63;;;3.48;100.00
70304;BME280;57712;48.752;11.348;2023-04-03T01:09:28;98184.63;;;3.44;100.00
70304;BME280;57712;48.752;11.348;2023-04-03T01:12:13;98178.50;;;3.47;100.00
70304;BME280;57712;48.752;11.348;2023-04-03T01:14:39;98186.19;;;3.45;100.00
70304;BME280;57712;48.752;11.348;2023-04-03T01:17:39;98186.22;;;3.30;100.00
70304;BME280;57712;48.752;11.348;2023-04-03T01:25:42;98192.06;;;3.32;100.00
70304;BME280;57712;48.752;11.348;2023-04-03T01:28:20;98188.88;;;3.26;100.00
70304;BME280;57712;48.752;11.348;2023-04-03T01:30:59;98182.38;;;3.31;100.00
70304;BME280;57712;48.752;11.348;2023-04-03T01:33:26;98192.00;;;3.28;100.00
70304;BME280;57712;48.752;11.348;2023-04-03T01:35:53;98195.13;;;3.30;100.00
70304;BME280;57712;48.752;11.348;2023-04-03T01:38:20;98195.06;;;3.27;100.00
70304;BME280;57712;48.752;11.348;2023-04-03T01:40:47;98202.47;;;3.30;100.00
70304;BME280;57712;48.752;11.348;2023-04-03T01:43:13;98200.13;;;3.28;100.00
70304;BME280;57712;48.752;11.348;2023-04-03T01:45:40;98195.06;;;3.27;100.00
70304;BME280;57712;48.752;11.348;2023-04-03T01:48:06;98207.38;;;3.24;100.00
70304;BME280;57712;48.752;11.348;2023-04-03T01:50:33;98208.53;;;3.07;100.00
70304;BME280;57712;48.752;11.348;2023-04-03T01:53:00;98202.94;;;3.16;100.00
70304;BME280;57712;48.752;11.348;2023-04-03T01:55:27;98201.38;;;3.15;100.00
70304;BME280;57712;48.752;11.348;2023-04-03T01:57:53;98202.81;;;3.28;100.00
70304;BME280;57712;48.752;11.348;2023-04-03T02:00:20;98207.09;;;3.29;100.00
70304;BME280;57712;48.752;11.348;2023-04-03T02:02:47;98194.81;;;3.16;100.00
70304;BME280;57712;48.752;11.348;2023-04-03T02:05:14;98196.88;;;3.23;100.00
70304;BME280;57712;48.752;11.348;2023-04-03T02:07:40;98199.44;;;3.15;100.00
70304;BME280;57712;48.752;11.348;2023-04-03T02:10:07;98201.09;;;3.20;100.00
70304;BME280;57712;48.752;11.348;2023-04-03T02:12:34;98196.81;;;3.19;100.00
70304;BME280;57712;48.752;11.348;2023-04-03T02:15:00;98201.09;;;3.20;100.00
70304;BME280;57712;48.752;11.348;2023-04-03T02:17:27;98196.47;;;3.21;100.00
70304;BME280;57712;48.752;11.348;2023-04-03T02:19:54;98192.72;;;3.25;100.00
70304;BME280;57712;48.752;11.348;2023-04-03T02:22:21;98196.97;;;3.26;100.00
70304;BME280;57712;48.752;11.348;2023-04-03T02:24:47;98199.25;;;3.24;100.00
70304;BME280;57712;48.752;11.348;2023-04-03T02:27:14;98200.47;;;3.27;100.00
70304;BME280;57712;48.752;11.348;2023-04-03T02:29:41;98204.31;;;3.26;100.00
70304;BME280;57712;48.752;11.348;2023-04-03T02:32:07;98201.31;;;3.31;100.00
70304;BME280;57712;48.752;11.348;2023-04-03T02:34:34;98199.53;;;3.19;100.00
70304;BME280;57712;48.752;11.348;2023-04-03T02:37:00;98189.28;;;3.28;100.00
70304;BME280;57712;48.752;11.348;2023-04-03T02:39:27;98197.94;;;3.18;100.00
70304;BME280;57712;48.752;11.348;2023-04-03T02:41:53;98202.50;;;3.14;100.00
70304;BME280;57712;48.752;11.348;2023-04-03T02:44:20;98204.22;;;3.22;100.00
70304;BME280;57712;48.752;11.348;2023-04-03T02:46:47;98195.06;;;3.11;100.00
70304;BME280;57712;48.752;11.348;2023-04-03T02:49:13;98201.63;;;3.10;100.00
70304;BME280;57712;48.752;11.348;2023-04-03T02:51:40;98199.28;;;3.08;100.00
70304;BME280;57712;48.752;11.348;2023-04-03T02:54:07;98210.97;;;3.12;100.00
70304;BME280;57712;48.752;11.348;2023-04-03T02:56:34;98204.09;;;3.15;100.00
70304;BME280;57712;48.752;11.348;2023-04-03T02:59:01;98204.88;;;3.15;100.00
70304;BME280;57712;48.752;11.348;2023-04-03T03:01:27;98208.72;;;3.14;100.00
70304;BME280;57712;48.752;11.348;2023-04-03T03:03:58;98204.69;;;3.08;100.00
70304;BME280;57712;48.752;11.348;2023-04-03T03:06:25;98207.94;;;3.14;100.00
70304;BME280;57712;48.752;11.348;2023-04-03T03:08:52;98203.91;;;3.08;100.00
70304;BME280;57712;48.752;11.348;2023-04-03T03:11:18;98207.75;;;3.07;100.00
70304;BME280;57712;48.752;11.348;2023-04-03T03:13:46;98200.13;;;3.12;100.00
70304;BME280;57712;48.752;11.348;2023-04-03T03:16:12;98203.97;;;3.11;100.00
70304;BME280;57712;48.752;11.348;2023-04-03T03:18:39;98202.03;;;3.28;100.00
70304;BME280;57712;48.752;11.348;2023-04-03T03:21:06;98208.25;;;3.12;100.00
70304;BME280;57712;48.752;11.348;2023-04-03T03:23:33;98203.31;;;3.14;100.00
70304;BME280;57712;48.752;11.348;2023-04-03T03:26:02;98203.13;;;3.07;100.00
70304;BME280;57712;48.752;11.348;2023-04-03T03:28:30;98198.38;;;3.20;100.00
70304;BME280;57712;48.752;11.348;2023-04-03T03:30:57;98197.25;;;3.21;100.00
70304;BME280;57712;48.752;11.348;2023-04-03T03:33:25;98195.31;;;3.22;100.00
70304;BME280;57712;48.752;11.348;2023-04-03T03:35:53;98199.53;;;3.19;100.00
70304;BME280;57712;48.752;11.348;2023-04-03T03:38:20;98202.41;;;3.26;100.00
70304;BME280;57712;48.752;11.348;2023-04-03T03:40:48;98200.53;;;3.30;100.00
70304;BME280;57712;48.752;11.348;2023-04-03T03:43:15;98197.94;;;3.18;100.00
70304;BME280;57712;48.752;11.348;2023-04-03T03:45:42;98190.97;;;3.17;100.00
70304;BME280;57712;48.752;11.348;2023-04-03T03:48:11;98203.38;;;3.18;100.00
70304;BME280;57712;48.752;11.348;2023-04-03T03:50:38;98199.47;;;3.00;100.00
70304;BME280;57712;48.752;11.348;2023-04-03T03:53:04;98196.22;;;3.10;100.00
70304;BME280;57712;48.752;11.348;2023-04-03T03:55:31;98208.47;;;3.04;100.00
70304;BME280;57712;48.752;11.348;2023-04-03T03:57:58;98195.78;;;3.08;100.00
70304;BME280;57712;48.752;11.348;2023-04-03T04:00:24;98196.06;;;3.03;100.00
70304;BME280;57712;48.752;11.348;2023-04-03T04:02:51;98202.03;;;2.93;100.00
70304;BME280;57712;48.752;11.348;2023-04-03T04:05:18;98201.75;;;2.98;100.00
70304;BME280;57712;48.752;11.348;2023-04-03T04:07:45;98210.56;;;2.95;100.00
70304;BME280;57712;48.752;11.348;2023-04-03T04:10:11;98211.25;;;2.92;100.00
70304;BME280;57712;48.752;11.348;2023-04-03T04:12:39;98206.53;;;2.88;100.00
70304;BME280;57712;48.752;11.348;2023-04-03T04:15:06;98213.69;;;2.97;100.00
70304;BME280;57712;48.752;11.348;2023-04-03T04:17:33;98210.47;;;2.91;100.00
70304;BME280;57712;48.752;11.348;2023-04-03T04:20:03;98212.84;;;2.93;100.00
70304;BME280;57712;48.752;11.348;2023-04-03T04:22:31;98212.41;;;2.75;100.00
70304;BME280;57712;48.752;11.348;2023-04-03T04:24:57;98215.09;;;2.90;100.00
70304;BME280;57712;48.752;11.348;2023-04-03T04:27:24;98219.81;;;2.94;100.00
70304;BME280;57712;48.752;11.348;2023-04-03T04:29:51;98220.16;;;2.76;100.00
70304;BME280;57712;48.752;11.348;2023-04-03T04:32:17;98216.31;;;2.77;100.00
70304;BME280;57712;48.752;11.348;2023-04-03T04:34:44;98217.91;;;2.78;100.00
70304;BME280;57712;48.752;11.348;2023-04-03T04:37:10;98218.16;;;2.73;100.00
70304;BME280;57712;48.752;11.348;2023-04-03T04:39:37;98217.47;;;2.76;100.00
70304;BME280;57712;48.752;11.348;2023-04-03T04:42:04;98218.53;;;2.72;100.00
70304;BME280;57712;48.752;11.348;2023-04-03T04:44:30;98227.66;;;2.67;100.00
70304;BME280;57712;48.752;11.348;2023-04-03T04:46:57;98222.44;;;2.74;100.00
70304;BME280;57712;48.752;11.348;2023-04-03T04:49:23;98223.66;;;2.77;100.00
70304;BME280;57712;48.752;11.348;2023-04-03T04:51:50;98223.31;;;2.78;100.00
70304;BME280;57712;48.752;11.348;2023-04-03T04:54:18;98219.31;;;2.72;100.00
70304;BME280;57712;48.752;11.348;2023-04-03T04:56:44;98222.25;;;2.67;100.00
70304;BME280;57712;48.752;11.348;2023-04-03T04:59:11;98223.75;;;2.65;100.00
70304;BME280;57712;48.752;11.348;2023-04-03T05:01:39;98226.97;;;2.70;100.00
70304;BME280;57712;48.752;11.348;2023-04-03T05:04:05;98221.13;;;2.68;100.00
70304;BME280;57712;48.752;11.348;2023-04-03T05:06:32;98224.88;;;2.79;100.00
70304;BME280;57712;48.752;11.348;2023-04-03T05:09:01;98224.28;;;2.86;100.00
70304;BME280;57712;48.752;11.348;2023-04-03T05:11:28;98223.59;;;2.73;100.00
70304;BME280;57712;48.752;11.348;2023-04-03T05:13:54;98234.84;;;2.75;100.00
70304;BME280;57712;48.752;11.348;2023-04-03T05:16:21;98229.22;;;2.68;100.00
70304;BME280;57712;48.752;11.348;2023-04-03T05:18:47;98232.56;;;2.77;100.00
70304;BME280;57712;48.752;11.348;2023-04-03T05:21:14;98235.97;;;2.74;100.00
70304;BME280;57712;48.752;11.348;2023-04-03T05:23:41;98234.75;;;2.72;100.00
70304;BME280;57712;48.752;11.348;2023-04-03T05:26:07;98243.38;;;2.77;100.00
70304;BME280;57712;48.752;11.348;2023-04-03T05:28:34;98244.94;;;2.78;100.00
70304;BME280;57712;48.752;11.348;2023-04-03T05:31:00;98246.09;;;2.77;100.00
70304;BME280;57712;48.752;11.348;2023-04-03T05:33:27;98245.91;;;2.86;100.00
70304;BME280;57712;48.752;11.348;2023-04-03T05:35:54;98241.63;;;2.85;100.00
70304;BME280;57712;48.752;11.348;2023-04-03T05:38:22;98244.59;;;2.96;100.00
70304;BME280;57712;48.752;11.348;2023-04-03T05:40:53;98238.75;;;2.94;100.00
70304;BME280;57712;48.752;11.348;2023-04-03T05:43:21;98242.75;;;3.00;100.00
70304;BME280;57712;48.752;11.348;2023-04-03T05:45:57;98239.13;;;2.92;100.00
70304;BME280;57712;48.752;11.348;2023-04-03T05:48:29;98243.91;;;2.99;100.00
70304;BME280;57712;48.752;11.348;2023-04-03T05:50:56;98239.69;;;3.01;100.00
70304;BME280;57712;48.752;11.348;2023-04-03T05:53:27;98245.22;;;3.05;100.00
70304;BME280;57712;48.752;11.348;2023-04-03T05:55:55;98245.91;;;3.02;100.00
70304;BME280;57712;48.752;11.348;2023-04-03T05:58:22;98252.00;;;2.99;100.00
70304;BME280;57712;48.752;11.348;2023-04-03T06:00:48;98249.84;;;2.88;100.00
70304;BME280;57712;48.752;11.348;2023-04-03T06:03:15;98252.44;;;3.01;100.00
70304;BME280;57712;48.752;11.348;2023-04-03T06:05:43;98255.50;;;2.99;100.00
70304;BME280;57712;48.752;11.348;2023-04-03T06:08:10;98254.91;;;3.06;100.00
70304;BME280;57712;48.752;11.348;2023-04-03T06:10:38;98256.22;;;2.96;100.00
70304;BME280;57712;48.752;11.348;2023-04-03T06:13:05;98256.47;;;3.07;100.00
70304;BME280;57712;48.752;11.348;2023-04-03T06:15:33;98250.34;;;3.10;100.00
70304;BME280;57712;48.752;11.348;2023-04-03T06:18:00;98257.50;;;3.18;100.00
70304;BME280;57712;48.752;11.348;2023-04-03T06:20:27;98257.69;;;3.25;100.00
70304;BME280;57712;48.752;11.348;2023-04-03T06:22:54;98261.97;;;3.26;100.00
70304;BME280;57712;48.752;11.348;2023-04-03T06:25:20;98255.41;;;3.27;100.00
70304;BME280;57712;48.752;11.348;2023-04-03T06:27:47;98259.59;;;3.09;100.00
70304;BME280;57712;48.752;11.348;2023-04-03T06:30:14;98260.03;;;3.27;100.00
70304;BME280;57712;48.752;11.348;2023-04-03T06:32:41;98254.78;;;3.34;100.00
70304;BME280;57712;48.752;11.348;2023-04-03T06:35:08;98262.03;;;3.30;100.00
70304;BME280;57712;48.752;11.348;2023-04-03T06:37:35;98261.97;;;3.26;100.00
70304;BME280;57712;48.752;11.348;2023-04-03T06:40:02;98258.31;;;3.54;100.00
70304;BME280;57712;48.752;11.348;2023-04-03T06:42:29;98264.50;;;3.54;100.00
70304;BME280;57712;48.752;11.348;2023-04-03T06:44:55;98271.59;;;3.59;100.00
70304;BME280;57712;48.752;11.348;2023-04-03T06:47:22;98274.09;;;3.67;100.00
70304;BME280;57712;48.752;11.348;2023-04-03T06:49:49;98274.72;;;3.61;100.00
70304;BME280;57712;48.752;11.348;2023-04-03T06:52:15;98276.84;;;3.52;100.00
70304;BME280;57712;48.752;11.348;2023-04-03T06:54:42;98275.19;;;3.82;100.00
70304;BME280;57712;48.752;11.348;2023-04-03T06:57:09;98271.22;;;3.60;100.00
70304;BME280;57712;48.752;11.348;2023-04-03T06:59:36;98276.47;;;3.69;100.00
70304;BME280;57712;48.752;11.348;2023-04-03T07:02:03;98280.94;;;3.96;100.00
70304;BME280;57712;48.752;11.348;2023-04-03T07:04:31;98286.97;;;3.90;100.00
70304;BME280;57712;48.752;11.348;2023-04-03T07:06:57;98280.34;;;4.07;100.00
70304;BME280;57712;48.752;11.348;2023-04-03T07:09:24;98292.91;;;4.15;100.00
70304;BME280;57712;48.752;11.348;2023-04-03T07:11:51;98280.47;;;4.14;100.00
70304;BME280;57712;48.752;11.348;2023-04-03T07:14:17;98288.91;;;3.89;100.00
70304;BME280;57712;48.752;11.348;2023-04-03T07:16:44;98290.59;;;4.17;100.00
70304;BME280;57712;48.752;11.348;2023-04-03T07:19:11;98300.19;;;4.30;100.00
70304;BME280;57712;48.752;11.348;2023-04-03T07:21:38;98294.78;;;4.30;100.00
70304;BME280;57712;48.752;11.348;2023-04-03T07:24:05;98297.47;;;4.30;100.00
70304;BME280;57712;48.752;11.348;2023-04-03T07:26:34;98294.69;;;4.26;100.00
70304;BME280;57712;48.752;11.348;2023-04-03T07:29:00;98295.19;;;4.13;100.00
70304;BME280;57712;48.752;11.348;2023-04-03T07:31:27;98298.91;;;4.24;100.00
70304;BME280;57712;48.752;11.348;2023-04-03T07:33:54;98303.75;;;4.53;100.00
70304;BME280;57712;48.752;11.348;2023-04-03T07:36:23;98308.00;;;4.74;100.00
70304;BME280;57712;48.752;11.348;2023-04-03T07:38:50;98303.41;;;4.78;100.00
70304;BME280;57712;48.752;11.348;2023-04-03T07:41:18;98314.16;;;4.71;100.00
70304;BME280;57712;48.752;11.348;2023-04-03T07:43:46;98310.06;;;5.03;100.00
70304;BME280;57712;48.752;11.348;2023-04-03T07:46:13;98314.28;;;4.58;100.00
70304;BME280;57712;48.752;11.348;2023-04-03T07:48:40;98315.09;;;4.59;100.00
70304;BME280;57712;48.752;11.348;2023-04-03T07:51:06;98313.28;;;4.67;100.00
70304;BME280;57712;48.752;11.348;2023-04-03T07:53:33;98319.03;;;4.84;100.00
70304;BME280;57712;48.752;11.348;2023-04-03T07:56:00;98323.81;;;4.91;100.00
70304;BME280;57712;48.752;11.348;2023-04-03T07:58:29;98317.31;;;4.96;100.00
70304;BME280;57712;48.752;11.348;2023-04-03T08:00:57;98322.13;;;4.83;100.00
70304;BME280;57712;48.752;11.348;2023-04-03T08:03:24;98316.56;;;4.76;100.00
70304;BME280;57712;48.752;11.348;2023-04-03T08:05:51;98322.25;;;4.90;100.00
70304;BME280;57712;48.752;11.348;2023-04-03T08:08:21;98323.69;;;4.84;100.00
70304;BME280;57712;48.752;11.348;2023-04-03T08:10:52;98322.72;;;4.73;100.00
70304;BME280;57712;48.752;11.348;2023-04-03T08:13:20;98322.69;;;5.15;100.00
70304;BME280;57712;48.752;11.348;2023-04-03T08:15:47;98322.13;;;5.29;100.00
70304;BME280;57712;48.752;11.348;2023-04-03T08:18:16;98328.13;;;5.15;100.00
70304;BME280;57712;48.752;11.348;2023-04-03T08:20:44;98331.47;;;4.85;100.00
70304;BME280;57712;48.752;11.348;2023-04-03T08:23:11;98322.09;;;5.02;100.00
70304;BME280;57712;48.752;11.348;2023-04-03T08:25:42;98327.50;;;5.25;100.00
70304;BME280;57712;48.752;11.348;2023-04-03T08:28:10;98328.06;;;5.11;100.00
70304;BME280;57712;48.752;11.348;2023-04-03T08:30:41;98325.34;;;5.11;100.00
70304;BME280;57712;48.752;11.348;2023-04-03T08:33:09;98332.69;;;5.34;100.00
70304;BME280;57712;48.752;11.348;2023-04-03T08:35:40;98331.47;;;5.31;100.00
70304;BME280;57712;48.752;11.348;2023-04-03T08:38:09;98332.69;;;5.34;100.00
70304;BME280;57712;48.752;11.348;2023-04-03T08:40:35;98334.72;;;5.63;100.00
70304;BME280;57712;48.752;11.348;2023-04-03T08:43:04;98331.25;;;5.66;100.00
70304;BME280;57712;48.752;11.348;2023-04-03T08:45:43;98324.81;;;5.51;100.00
70304;BME280;57712;48.752;11.348;2023-04-03T08:48:29;98332.41;;;5.65;100.00
70304;BME280;57712;48.752;11.348;2023-04-03T08:51:01;98328.16;;;5.91;100.00
70304;BME280;57712;48.752;11.348;2023-04-03T08:53:40;98332.09;;;5.70;100.00
70304;BME280;57712;48.752;11.348;2023-04-03T08:56:10;98332.69;;;6.10;100.00
70304;BME280;57712;48.752;11.348;2023-04-03T08:59:00;98340.56;;;5.65;100.00
70304;BME280;57712;48.752;11.348;2023-04-03T09:01:34;98334.78;;;6.23;100.00
70304;BME280;57712;48.752;11.348;2023-04-03T09:04:05;98347.25;;;5.94;100.00
70304;BME280;57712;48.752;11.348;2023-04-03T09:06:36;98339.91;;;5.98;100.00
70304;BME280;57712;48.752;11.348;2023-04-03T09:09:12;98347.19;;;5.91;100.00
70304;BME280;57712;48.752;11.348;2023-04-03T09:12:06;98331.84;;;6.05;100.00
70304;BME280;57712;48.752;11.348;2023-04-03T09:14:46;98333.56;;;6.17;100.00
70304;BME280;57712;48.752;11.348;2023-04-03T09:22:46;98343.41;;;5.99;100.00
70304;BME280;57712;48.752;11.348;2023-04-03T09:27:49;98346.63;;;5.82;100.00
70304;BME280;57712;48.752;11.348;2023-04-03T09:30:21;98345.59;;;5.63;100.00
70304;BME280;57712;48.752;11.348;2023-04-03T09:32:50;98341.19;;;5.82;100.00
70304;BME280;57712;48.752;11.348;2023-04-03T09:35:25;98347.22;;;5.68;100.00
70304;BME280;57712;48.752;11.348;2023-04-03T09:40:46;98343.41;;;5.99;100.00
70304;BME280;57712;48.752;11.348;2023-04-03T09:45:45;98337.00;;;5.88;99.64
70304;BME280;57712;48.752;11.348;2023-04-03T09:53:41;98336.97;;;6.11;100.00
70304;BME280;57712;48.752;11.348;2023-04-03T09:58:47;98340.28;;;5.97;99.60
70304;BME280;57712;48.752;11.348;2023-04-03T10:01:36;98340.78;;;5.79;100.00
70304;BME280;57712;48.752;11.348;2023-04-03T10:04:11;98333.78;;;5.78;100.00
70304;BME280;57712;48.752;11.348;2023-04-03T10:06:41;98337.31;;;5.83;100.00
70304;BME280;57712;48.752;11.348;2023-04-03T10:12:00;98332.06;;;6.23;95.81
70304;BME280;57712;48.752;11.348;2023-04-03T10:14:29;98323.56;;;5.95;91.92
70304;BME280;57712;48.752;11.348;2023-04-03T10:17:03;98331.16;;;6.12;94.07
70304;BME280;57712;48.752;11.348;2023-04-03T10:19:46;98318.28;;;6.09;89.74
70304;BME280;57712;48.752;11.348;2023-04-03T10:22:25;98324.41;;;6.32;88.72
70304;BME280;57712;48.752;11.348;2023-04-03T10:25:01;98325.44;;;6.21;90.70
70304;BME280;57712;48.752;11.348;2023-04-03T10:27:38;98325.88;;;6.56;81.39
70304;BME280;57712;48.752;11.348;2023-04-03T10:41:59;98318.31;;;7.17;69.19
70304;BME280;57712;48.752;11.348;2023-04-03T10:47:55;98317.44;;;7.06;75.85
70304;BME280;57712;48.752;11.348;2023-04-03T10:53:37;98319.84;;;7.14;70.37
70304;BME280;57712;48.752;11.348;2023-04-03T10:59:32;98306.94;;;8.21;64.61
70304;BME280;57712;48.752;11.348;2023-04-03T11:02:23;98320.59;;;8.18;60.84
70304;BME280;57712;48.752;11.348;2023-04-03T11:04:59;98306.38;;;7.87;55.58
70304;BME280;57712;48.752;11.348;2023-04-03T11:07:34;98305.09;;;8.36;60.90
70304;BME280;57712;48.752;11.348;2023-04-03T11:10:09;98304.06;;;8.83;57.73
70304;BME280;57712;48.752;11.348;2023-04-03T11:15:15;98297.47;;;9.09;56.04
70304;BME280;57712;48.752;11.348;2023-04-03T11:17:48;98302.88;;;8.70;52.34
70304;BME280;57712;48.752;11.348;2023-04-03T11:20:28;98297.03;;;8.79;49.72
70304;BME280;57712;48.752;11.348;2023-04-03T11:23:21;98292.81;;;9.28;51.12
70304;BME280;57712;48.752;11.348;2023-04-03T11:26:16;98292.78;;;8.88;52.08
70304;BME280;57712;48.752;11.348;2023-04-03T11:28:44;98288.00;;;8.64;49.46
70304;BME280;57712;48.752;11.348;2023-04-03T11:34:03;98291.59;;;9.57;46.10
70304;BME280;57712;48.752;11.348;2023-04-03T11:36:39;98278.72;;;9.04;47.59
70304;BME280;57712;48.752;11.348;2023-04-03T11:39:26;98286.44;;;8.63;49.00
70304;BME280;57712;48.752;11.348;2023-04-03T11:41:55;98286.47;;;8.74;51.34
70304;BME280;57712;48.752;11.348;2023-04-03T11:44:38;98284.81;;;8.41;49.96
70304;BME280;57712;48.752;11.348;2023-04-03T11:47:07;98282.94;;;7.72;50.11
70304;BME280;57712;48.752;11.348;2023-04-03T12:16:30;98267.69;;;10.04;45.39
70304;BME280;57712;48.752;11.348;2023-04-03T12:24:32;98258.06;;;10.58;42.95
70304;BME280;57712;48.752;11.348;2023-04-03T12:48:46;98247.69;;;8.22;44.84
70304;BME280;57712;48.752;11.348;2023-04-03T12:51:23;98237.31;;;8.56;46.11
70304;BME280;57712;48.752;11.348;2023-04-03T12:54:01;98235.69;;;9.83;47.90
70304;BME280;57712;48.752;11.348;2023-04-03T12:56:31;98243.25;;;10.49;43.44
70304;BME280;57712;48.752;11.348;2023-04-03T12:59:21;98237.13;;;10.23;46.40
70304;BME280;57712;48.752;11.348;2023-04-03T13:01:59;98245.91;;;9.61;45.41
70304;BME280;57712;48.752;11.348;2023-04-03T13:04:27;98243.97;;;8.80;44.53
70304;BME280;57712;48.752;11.348;2023-04-03T13:06:54;98242.00;;;8.73;46.15
70304;BME280;57712;48.752;11.348;2023-04-03T13:09:22;98246.72;;;9.01;45.25
70304;BME280;57712;48.752;11.348;2023-04-03T13:11:52;98238.31;;;10.22;46.00
70304;BME280;57712;48.752;11.348;2023-04-03T13:14:24;98245.53;;;9.52;44.43
70304;BME280;57712;48.752;11.348;2023-04-03T13:17:06;98231.09;;;9.34;46.08
70304;BME280;57712;48.752;11.348;2023-04-03T13:19:38;98233.44;;;8.96;46.26
70304;BME280;57712;48.752;11.348;2023-04-03T13:22:11;98238.81;;;8.39;44.57
70304;BME280;57712;48.752;11.348;2023-04-03T13:24:47;98234.06;;;8.29;43.97
70304;BME280;57712;48.752;11.348;2023-04-03T13:27:15;98235.72;;;8.51;43.63
70304;BME280;57712;48.752;11.348;2023-04-03T13:29:42;98241.97;;;8.45;43.53
70304;BME280;57712;48.752;11.348;2023-04-03T13:32:21;98229.16;;;8.88;44.79
70304;BME280;57712;48.752;11.348;2023-04-03T13:34:49;98241.22;;;8.65;42.44
70304;BME280;57712;48.752;11.348;2023-04-03T13:37:31;98234.84;;;8.29;42.23
70304;BME280;57712;48.752;11.348;2023-04-03T13:42:33;98230.00;;;7.91;47.05
70304;BME280;57712;48.752;11.348;2023-04-03T13:47:41;98236.22;;;7.84;43.10
70304;BME280;57712;48.752;11.348;2023-04-03T13:53:11;98229.19;;;7.79;41.72
70304;BME280;57712;48.752;11.348;2023-04-03T13:58:31;98224.19;;;7.92;44.09
70304;BME280;57712;48.752;11.348;2023-04-03T14:03:45;98223.94;;;7.49;43.60
70304;BME280;57712;48.752;11.348;2023-04-03T14:06:15;98219.03;;;7.73;44.71
70304;BME280;57712;48.752;11.348;2023-04-03T14:08:42;98222.69;;;8.13;42.69
70304;BME280;57712;48.752;11.348;2023-04-03T14:11:16;98218.44;;;8.22;41.13
70304;BME280;57712;48.752;11.348;2023-04-03T14:13:43;98212.84;;;7.87;42.89
70304;BME280;57712;48.752;11.348;2023-04-03T14:16:13;98213.25;;;7.85;42.85
70304;BME280;57712;48.752;11.348;2023-04-03T14:18:45;98208.94;;;7.80;42.27
70304;BME280;57712;48.752;11.348;2023-04-03T14:21:14;98211.44;;;8.25;43.74
70304;BME280;57712;48.752;11.348;2023-04-03T14:23:41;98205.09;;;7.99;45.45
70304;BME280;57712;48.752;11.348;2023-04-03T14:26:17;98206.63;;;7.82;43.77
70304;BME280;57712;48.752;11.348;2023-04-03T14:28:45;98214.03;;;7.89;44.67
70304;BME280;57712;48.752;11.348;2023-04-03T14:31:13;98211.47;;;7.45;43.68
70304;BME280;57712;48.752;11.348;2023-04-03T14:33:41;98215.59;;;7.21;41.88
70304;BME280;57712;48.752;11.348;2023-04-03T14:38:38;98203.41;;;7.63;42.62
70304;BME280;57712;48.752;11.348;2023-04-03T14:41:05;98200.69;;;7.70;42.18
70304;BME280;57712;48.752;11.348;2023-04-03T14:43:42;98203.94;;;7.93;42.84
70304;BME280;57712;48.752;11.348;2023-04-03T14:48:40;98202.19;;;7.57;44.89
70304;BME280;57712;48.752;11.348;2023-04-03T14:51:10;98203.47;;;7.77;45.42
70304;BME280;57712;48.752;11.348;2023-04-03T14:53:37;98194.09;;;7.74;41.84
70304;BME280;57712;48.752;11.348;2023-04-03T14:56:32;98198.63;;;7.45;43.70
70304;BME280;57712;48.752;11.348;2023-04-03T14:58:59;98194.34;;;7.48;43.16
70304;BME280;57712;48.752;11.348;2023-04-03T15:01:29;98191.59;;;7.41;44.63
70304;BME280;57712;48.752;11.348;2023-04-03T15:03:56;98198.66;;;7.52;44.81
70304;BME280;57712;48.752;11.348;2023-04-03T15:06:24;98198.06;;;7.84;45.53
70304;BME280;57712;48.752;11.348;2023-04-03T15:08:52;98192.63;;;7.98;44.41
70304;BME280;57712;48.752;11.348;2023-04-03T15:11:18;98196.16;;;7.99;44.04
70304;BME280;57712;48.752;11.348;2023-04-03T15:13:45;98198.06;;;7.91;42.90
70304;BME280;57712;48.752;11.348;2023-04-03T15:16:16;98199.91;;;7.66;43.70